Demopolis, Alabama
Current Conditions -  °F | °C
As of 9:55 AM on Monday 26 Jan 2015 (Local Time) from KDYA Reporting Station
Overcast Overcast  
Wind Chill:   Ceiling: 2400
Heat Index:   Visibility: 10mi
Dew Point:   Wind: 9mph
Humidity: 65%   Direction: 320°NW
Pressure: 30.08"   Gusts: NA
Location:  32.5°N, 87.84°W
Report Text: KDYA 261555Z AUTO 32008KT 10SM OVC024 07/01 A3008 RMK AO2 T00710010
Loading
Personal Weather Stations






























Interactive Weather Map New forecast layout! Learn more

10-Day Weather Forecast

Advertisements
Track Severe Weather on mobile